sensor_id;sensor_type;location;lat;lon;timestamp;P1;durP1;ratioP1;P2;durP2;ratioP2
52898;SDS011;38763;53.096;6.062;2023-09-07T00:00:48;8.55;;;4.10;;
52898;SDS011;38763;53.096;6.062;2023-09-07T00:03:14;6.32;;;3.80;;
52898;SDS011;38763;53.096;6.062;2023-09-07T00:05:40;7.65;;;3.65;;
52898;SDS011;38763;53.096;6.062;2023-09-07T00:08:06;5.55;;;3.42;;
52898;SDS011;38763;53.096;6.062;2023-09-07T00:10:32;7.97;;;3.67;;
52898;SDS011;38763;53.096;6.062;2023-09-07T00:13:01;5.68;;;3.60;;
52898;SDS011;38763;53.096;6.062;2023-09-07T00:15:29;6.20;;;3.50;;
52898;SDS011;38763;53.096;6.062;2023-09-07T00:17:55;7.60;;;3.70;;
52898;SDS011;38763;53.096;6.062;2023-09-07T00:20:22;7.13;;;4.03;;
52898;SDS011;38763;53.096;6.062;2023-09-07T00:22:48;6.63;;;3.60;;
52898;SDS011;38763;53.096;6.062;2023-09-07T00:25:14;6.32;;;3.38;;
52898;SDS011;38763;53.096;6.062;2023-09-07T00:27:40;5.45;;;3.50;;
52898;SDS011;38763;53.096;6.062;2023-09-07T00:30:06;7.38;;;3.50;;
52898;SDS011;38763;53.096;6.062;2023-09-07T00:32:35;7.20;;;4.05;;
52898;SDS011;38763;53.096;6.062;2023-09-07T00:35:02;7.63;;;4.00;;
52898;SDS011;38763;53.096;6.062;2023-09-07T00:37:28;5.97;;;3.72;;
52898;SDS011;38763;53.096;6.062;2023-09-07T00:39:54;5.95;;;3.60;;
52898;SDS011;38763;53.096;6.062;2023-09-07T00:42:19;5.13;;;3.47;;
52898;SDS011;38763;53.096;6.062;2023-09-07T00:44:45;4.97;;;3.47;;
52898;SDS011;38763;53.096;6.062;2023-09-07T00:47:11;6.55;;;3.83;;
52898;SDS011;38763;53.096;6.062;2023-09-07T00:49:37;9.60;;;3.40;;
52898;SDS011;38763;53.096;6.062;2023-09-07T00:52:04;7.95;;;3.88;;
52898;SDS011;38763;53.096;6.062;2023-09-07T00:54:30;6.40;;;4.00;;
52898;SDS011;38763;53.096;6.062;2023-09-07T00:56:56;7.68;;;3.53;;
52898;SDS011;38763;53.096;6.062;2023-09-07T00:59:22;8.02;;;3.40;;
52898;SDS011;38763;53.096;6.062;2023-09-07T01:01:48;5.57;;;3.42;;
52898;SDS011;38763;53.096;6.062;2023-09-07T01:04:14;6.82;;;3.38;;
52898;SDS011;38763;53.096;6.062;2023-09-07T01:06:42;6.10;;;3.40;;
52898;SDS011;38763;53.096;6.062;2023-09-07T01:09:14;8.15;;;3.67;;
52898;SDS011;38763;53.096;6.062;2023-09-07T01:11:44;6.13;;;3.80;;
52898;SDS011;38763;53.096;6.062;2023-09-07T01:14:09;8.25;;;3.65;;
52898;SDS011;38763;53.096;6.062;2023-09-07T01:16:35;8.95;;;3.83;;
52898;SDS011;38763;53.096;6.062;2023-09-07T01:19:03;5.53;;;3.38;;
52898;SDS011;38763;53.096;6.062;2023-09-07T01:21:35;8.63;;;3.90;;
52898;SDS011;38763;53.096;6.062;2023-09-07T01:24:03;5.53;;;3.35;;
52898;SDS011;38763;53.096;6.062;2023-09-07T01:26:31;6.25;;;4.05;;
52898;SDS011;38763;53.096;6.062;2023-09-07T01:28:56;8.80;;;4.00;;
52898;SDS011;38763;53.096;6.062;2023-09-07T01:31:22;5.85;;;3.50;;
52898;SDS011;38763;53.096;6.062;2023-09-07T01:33:48;6.90;;;3.70;;
52898;SDS011;38763;53.096;6.062;2023-09-07T01:36:13;6.10;;;3.85;;
52898;SDS011;38763;53.096;6.062;2023-09-07T01:38:39;8.05;;;3.60;;
52898;SDS011;38763;53.096;6.062;2023-09-07T01:41:05;7.82;;;3.47;;
52898;SDS011;38763;53.096;6.062;2023-09-07T01:43:30;12.32;;;3.53;;
52898;SDS011;38763;53.096;6.062;2023-09-07T01:45:56;6.40;;;3.72;;
52898;SDS011;38763;53.096;6.062;2023-09-07T01:48:21;6.63;;;3.60;;
52898;SDS011;38763;53.096;6.062;2023-09-07T01:50:51;7.95;;;4.03;;
52898;SDS011;38763;53.096;6.062;2023-09-07T01:53:18;6.35;;;3.78;;
52898;SDS011;38763;53.096;6.062;2023-09-07T01:55:44;8.07;;;3.70;;
52898;SDS011;38763;53.096;6.062;2023-09-07T01:58:10;10.00;;;3.70;;
52898;SDS011;38763;53.096;6.062;2023-09-07T02:00:36;5.90;;;3.90;;
52898;SDS011;38763;53.096;6.062;2023-09-07T02:03:03;6.60;;;3.67;;
52898;SDS011;38763;53.096;6.062;2023-09-07T02:05:29;6.53;;;3.67;;
52898;SDS011;38763;53.096;6.062;2023-09-07T02:07:55;6.88;;;3.97;;
52898;SDS011;38763;53.096;6.062;2023-09-07T02:10:20;6.22;;;3.50;;
52898;SDS011;38763;53.096;6.062;2023-09-07T02:12:46;6.55;;;4.00;;
52898;SDS011;38763;53.096;6.062;2023-09-07T02:15:11;5.65;;;3.83;;
52898;SDS011;38763;53.096;6.062;2023-09-07T02:17:37;7.32;;;3.90;;
52898;SDS011;38763;53.096;6.062;2023-09-07T02:20:03;7.65;;;3.90;;
52898;SDS011;38763;53.096;6.062;2023-09-07T02:22:35;6.77;;;3.50;;
52898;SDS011;38763;53.096;6.062;2023-09-07T02:25:01;8.63;;;3.92;;
52898;SDS011;38763;53.096;6.062;2023-09-07T02:27:28;8.07;;;4.07;;
52898;SDS011;38763;53.096;6.062;2023-09-07T02:29:54;8.80;;;4.53;;
52898;SDS011;38763;53.096;6.062;2023-09-07T02:32:19;7.78;;;4.10;;
52898;SDS011;38763;53.096;6.062;2023-09-07T02:34:45;11.88;;;4.35;;
52898;SDS011;38763;53.096;6.062;2023-09-07T02:37:10;7.10;;;4.25;;
52898;SDS011;38763;53.096;6.062;2023-09-07T02:39:36;8.07;;;4.45;;
52898;SDS011;38763;53.096;6.062;2023-09-07T02:42:02;7.40;;;4.63;;
52898;SDS011;38763;53.096;6.062;2023-09-07T02:44:27;7.82;;;4.50;;
52898;SDS011;38763;53.096;6.062;2023-09-07T02:46:53;7.07;;;4.40;;
52898;SDS011;38763;53.096;6.062;2023-09-07T02:49:19;7.93;;;4.75;;
52898;SDS011;38763;53.096;6.062;2023-09-07T02:51:45;7.53;;;4.85;;
52898;SDS011;38763;53.096;6.062;2023-09-07T02:54:10;7.45;;;4.65;;
52898;SDS011;38763;53.096;6.062;2023-09-07T02:56:36;8.98;;;4.70;;
52898;SDS011;38763;53.096;6.062;2023-09-07T02:59:01;6.57;;;4.55;;
52898;SDS011;38763;53.096;6.062;2023-09-07T03:01:28;6.45;;;4.40;;
52898;SDS011;38763;53.096;6.062;2023-09-07T03:03:53;6.40;;;4.55;;
52898;SDS011;38763;53.096;6.062;2023-09-07T03:06:19;7.97;;;4.65;;
52898;SDS011;38763;53.096;6.062;2023-09-07T03:08:45;7.20;;;4.47;;
52898;SDS011;38763;53.096;6.062;2023-09-07T03:11:11;8.40;;;4.90;;
52898;SDS011;38763;53.096;6.062;2023-09-07T03:13:36;10.13;;;4.65;;
52898;SDS011;38763;53.096;6.062;2023-09-07T03:16:03;7.00;;;4.25;;
52898;SDS011;38763;53.096;6.062;2023-09-07T03:18:29;6.75;;;4.40;;
52898;SDS011;38763;53.096;6.062;2023-09-07T03:20:55;7.75;;;4.45;;
52898;SDS011;38763;53.096;6.062;2023-09-07T03:23:23;8.90;;;4.53;;
52898;SDS011;38763;53.096;6.062;2023-09-07T03:25:49;8.13;;;4.47;;
52898;SDS011;38763;53.096;6.062;2023-09-07T03:28:15;7.05;;;4.53;;
52898;SDS011;38763;53.096;6.062;2023-09-07T03:30:40;7.95;;;4.60;;
52898;SDS011;38763;53.096;6.062;2023-09-07T03:33:06;7.65;;;4.50;;
52898;SDS011;38763;53.096;6.062;2023-09-07T03:35:32;6.70;;;4.75;;
52898;SDS011;38763;53.096;6.062;2023-09-07T03:37:58;7.80;;;4.45;;
52898;SDS011;38763;53.096;6.062;2023-09-07T03:40:24;7.07;;;4.63;;
52898;SDS011;38763;53.096;6.062;2023-09-07T03:42:49;8.27;;;5.78;;
52898;SDS011;38763;53.096;6.062;2023-09-07T03:45:15;7.88;;;4.70;;
52898;SDS011;38763;53.096;6.062;2023-09-07T03:47:41;7.18;;;4.50;;
52898;SDS011;38763;53.096;6.062;2023-09-07T03:50:07;8.93;;;5.20;;
52898;SDS011;38763;53.096;6.062;2023-09-07T03:52:33;7.72;;;4.85;;
52898;SDS011;38763;53.096;6.062;2023-09-07T03:55:00;8.15;;;5.07;;
52898;SDS011;38763;53.096;6.062;2023-09-07T03:57:26;7.05;;;5.00;;
52898;SDS011;38763;53.096;6.062;2023-09-07T03:59:53;7.72;;;5.03;;
52898;SDS011;38763;53.096;6.062;2023-09-07T04:02:20;8.35;;;5.03;;
52898;SDS011;38763;53.096;6.062;2023-09-07T04:04:49;9.38;;;5.90;;
52898;SDS011;38763;53.096;6.062;2023-09-07T04:07:16;8.38;;;4.75;;
52898;SDS011;38763;53.096;6.062;2023-09-07T04:09:42;10.20;;;5.30;;
52898;SDS011;38763;53.096;6.062;2023-09-07T04:12:08;9.63;;;5.18;;
52898;SDS011;38763;53.096;6.062;2023-09-07T04:14:34;9.27;;;5.65;;
52898;SDS011;38763;53.096;6.062;2023-09-07T04:17:00;11.38;;;6.00;;
52898;SDS011;38763;53.096;6.062;2023-09-07T04:19:26;9.70;;;5.82;;
52898;SDS011;38763;53.096;6.062;2023-09-07T04:21:52;8.43;;;5.70;;
52898;SDS011;38763;53.096;6.062;2023-09-07T04:24:18;9.70;;;6.28;;
52898;SDS011;38763;53.096;6.062;2023-09-07T04:26:43;8.57;;;6.28;;
52898;SDS011;38763;53.096;6.062;2023-09-07T04:29:09;10.10;;;6.30;;
52898;SDS011;38763;53.096;6.062;2023-09-07T04:31:36;10.13;;;6.07;;
52898;SDS011;38763;53.096;6.062;2023-09-07T04:34:02;10.60;;;6.60;;
52898;SDS011;38763;53.096;6.062;2023-09-07T04:36:28;9.82;;;7.00;;
52898;SDS011;38763;53.096;6.062;2023-09-07T04:38:53;12.40;;;7.38;;
52898;SDS011;38763;53.096;6.062;2023-09-07T04:41:19;14.43;;;7.30;;
52898;SDS011;38763;53.096;6.062;2023-09-07T04:43:45;11.68;;;6.60;;
52898;SDS011;38763;53.096;6.062;2023-09-07T04:46:11;10.52;;;6.60;;
52898;SDS011;38763;53.096;6.062;2023-09-07T04:48:38;12.57;;;6.88;;
52898;SDS011;38763;53.096;6.062;2023-09-07T04:51:05;10.80;;;7.05;;
52898;SDS011;38763;53.096;6.062;2023-09-07T04:53:32;12.07;;;6.95;;
52898;SDS011;38763;53.096;6.062;2023-09-07T04:56:01;10.70;;;6.25;;
52898;SDS011;38763;53.096;6.062;2023-09-07T04:58:27;11.43;;;7.13;;
52898;SDS011;38763;53.096;6.062;2023-09-07T05:00:52;14.27;;;7.47;;
52898;SDS011;38763;53.096;6.062;2023-09-07T05:03:18;12.48;;;7.72;;
52898;SDS011;38763;53.096;6.062;2023-09-07T05:05:44;14.32;;;7.57;;
52898;SDS011;38763;53.096;6.062;2023-09-07T05:08:15;11.52;;;6.93;;
52898;SDS011;38763;53.096;6.062;2023-09-07T05:10:41;10.95;;;7.13;;
52898;SDS011;38763;53.096;6.062;2023-09-07T05:13:07;13.63;;;7.35;;
52898;SDS011;38763;53.096;6.062;2023-09-07T05:15:33;12.85;;;7.35;;
52898;SDS011;38763;53.096;6.062;2023-09-07T05:17:58;13.13;;;7.32;;
52898;SDS011;38763;53.096;6.062;2023-09-07T05:20:24;12.20;;;6.72;;
52898;SDS011;38763;53.096;6.062;2023-09-07T05:22:50;11.80;;;6.72;;
52898;SDS011;38763;53.096;6.062;2023-09-07T05:25:16;12.73;;;7.22;;
52898;SDS011;38763;53.096;6.062;2023-09-07T05:27:42;10.30;;;7.05;;
52898;SDS011;38763;53.096;6.062;2023-09-07T05:30:09;10.77;;;6.93;;
52898;SDS011;38763;53.096;6.062;2023-09-07T05:32:35;14.30;;;7.75;;
52898;SDS011;38763;53.096;6.062;2023-09-07T05:35:01;15.00;;;6.95;;
52898;SDS011;38763;53.096;6.062;2023-09-07T05:37:26;10.90;;;7.10;;
52898;SDS011;38763;53.096;6.062;2023-09-07T05:39:52;12.20;;;6.93;;
52898;SDS011;38763;53.096;6.062;2023-09-07T05:42:18;13.25;;;7.28;;
52898;SDS011;38763;53.096;6.062;2023-09-07T05:44:43;10.52;;;6.72;;
52898;SDS011;38763;53.096;6.062;2023-09-07T05:47:09;14.45;;;6.95;;
52898;SDS011;38763;53.096;6.062;2023-09-07T05:49:34;12.82;;;7.20;;
52898;SDS011;38763;53.096;6.062;2023-09-07T05:52:00;10.95;;;6.95;;
52898;SDS011;38763;53.096;6.062;2023-09-07T05:54:26;10.48;;;6.57;;
52898;SDS011;38763;53.096;6.062;2023-09-07T05:56:51;9.77;;;6.82;;
52898;SDS011;38763;53.096;6.062;2023-09-07T05:59:17;9.75;;;6.45;;
52898;SDS011;38763;53.096;6.062;2023-09-07T06:01:43;11.35;;;6.82;;
52898;SDS011;38763;53.096;6.062;2023-09-07T06:04:09;13.02;;;5.90;;
52898;SDS011;38763;53.096;6.062;2023-09-07T06:06:35;10.75;;;6.45;;
52898;SDS011;38763;53.096;6.062;2023-09-07T06:09:00;10.48;;;6.15;;
52898;SDS011;38763;53.096;6.062;2023-09-07T06:11:26;12.80;;;6.90;;
52898;SDS011;38763;53.096;6.062;2023-09-07T06:13:52;9.30;;;6.55;;
52898;SDS011;38763;53.096;6.062;2023-09-07T06:16:17;10.77;;;6.38;;
52898;SDS011;38763;53.096;6.062;2023-09-07T06:18:43;11.90;;;6.40;;
52898;SDS011;38763;53.096;6.062;2023-09-07T06:21:09;12.80;;;6.85;;
52898;SDS011;38763;53.096;6.062;2023-09-07T06:23:35;11.00;;;6.38;;
52898;SDS011;38763;53.096;6.062;2023-09-07T06:26:00;13.50;;;6.32;;
52898;SDS011;38763;53.096;6.062;2023-09-07T06:28:26;8.48;;;6.10;;
52898;SDS011;38763;53.096;6.062;2023-09-07T06:30:52;10.93;;;6.55;;
52898;SDS011;38763;53.096;6.062;2023-09-07T06:33:18;11.02;;;6.53;;
52898;SDS011;38763;53.096;6.062;2023-09-07T06:35:43;11.95;;;6.38;;
52898;SDS011;38763;53.096;6.062;2023-09-07T06:38:09;10.68;;;6.78;;
52898;SDS011;38763;53.096;6.062;2023-09-07T06:40:35;11.40;;;6.38;;
52898;SDS011;38763;53.096;6.062;2023-09-07T06:43:00;11.02;;;5.95;;
52898;SDS011;38763;53.096;6.062;2023-09-07T06:45:30;8.07;;;5.72;;
52898;SDS011;38763;53.096;6.062;2023-09-07T06:47:59;11.23;;;6.45;;
52898;SDS011;38763;53.096;6.062;2023-09-07T06:50:25;8.82;;;5.72;;
52898;SDS011;38763;53.096;6.062;2023-09-07T06:52:50;12.80;;;6.70;;
52898;SDS011;38763;53.096;6.062;2023-09-07T06:55:16;10.20;;;5.82;;
52898;SDS011;38763;53.096;6.062;2023-09-07T06:57:42;10.20;;;6.20;;
52898;SDS011;38763;53.096;6.062;2023-09-07T07:00:07;9.10;;;5.97;;
52898;SDS011;38763;53.096;6.062;2023-09-07T07:02:33;10.13;;;6.20;;
52898;SDS011;38763;53.096;6.062;2023-09-07T07:04:59;8.05;;;5.40;;
52898;SDS011;38763;53.096;6.062;2023-09-07T07:07:25;12.50;;;5.60;;
52898;SDS011;38763;53.096;6.062;2023-09-07T07:09:51;9.18;;;5.65;;
52898;SDS011;38763;53.096;6.062;2023-09-07T07:12:17;9.48;;;6.00;;
52898;SDS011;38763;53.096;6.062;2023-09-07T07:14:44;9.90;;;5.93;;
52898;SDS011;38763;53.096;6.062;2023-09-07T07:17:09;10.45;;;5.45;;
52898;SDS011;38763;53.096;6.062;2023-09-07T07:19:35;8.90;;;5.70;;
52898;SDS011;38763;53.096;6.062;2023-09-07T07:22:01;7.90;;;5.40;;
52898;SDS011;38763;53.096;6.062;2023-09-07T07:24:26;10.45;;;5.30;;
52898;SDS011;38763;53.096;6.062;2023-09-07T07:26:52;7.60;;;5.10;;
52898;SDS011;38763;53.096;6.062;2023-09-07T07:29:17;9.05;;;5.20;;
52898;SDS011;38763;53.096;6.062;2023-09-07T07:31:43;7.20;;;5.20;;
52898;SDS011;38763;53.096;6.062;2023-09-07T07:34:09;7.35;;;4.97;;
52898;SDS011;38763;53.096;6.062;2023-09-07T07:36:35;11.75;;;5.18;;
52898;SDS011;38763;53.096;6.062;2023-09-07T07:39:00;8.77;;;4.88;;
52898;SDS011;38763;53.096;6.062;2023-09-07T07:41:28;8.10;;;4.90;;
52898;SDS011;38763;53.096;6.062;2023-09-07T07:43:54;7.82;;;5.00;;
52898;SDS011;38763;53.096;6.062;2023-09-07T07:46:20;6.95;;;4.68;;
52898;SDS011;38763;53.096;6.062;2023-09-07T07:48:45;8.88;;;4.70;;
52898;SDS011;38763;53.096;6.062;2023-09-07T07:51:11;6.80;;;4.07;;
52898;SDS011;38763;53.096;6.062;2023-09-07T07:53:36;7.75;;;4.60;;
52898;SDS011;38763;53.096;6.062;2023-09-07T07:56:02;8.18;;;4.03;;
52898;SDS011;38763;53.096;6.062;2023-09-07T07:58:28;7.70;;;4.15;;
52898;SDS011;38763;53.096;6.062;2023-09-07T08:00:54;6.93;;;4.68;;
52898;SDS011;38763;53.096;6.062;2023-09-07T08:03:23;8.88;;;4.70;;
52898;SDS011;38763;53.096;6.062;2023-09-07T08:05:48;7.80;;;4.43;;
52898;SDS011;38763;53.096;6.062;2023-09-07T08:08:14;7.57;;;4.03;;
52898;SDS011;38763;53.096;6.062;2023-09-07T08:10:40;8.40;;;4.45;;
52898;SDS011;38763;53.096;6.062;2023-09-07T08:13:06;8.38;;;3.95;;
52898;SDS011;38763;53.096;6.062;2023-09-07T08:15:33;6.82;;;4.07;;
52898;SDS011;38763;53.096;6.062;2023-09-07T08:17:59;6.55;;;4.25;;
52898;SDS011;38763;53.096;6.062;2023-09-07T08:20:25;6.90;;;3.92;;
52898;SDS011;38763;53.096;6.062;2023-09-07T08:22:51;7.15;;;3.90;;
52898;SDS011;38763;53.096;6.062;2023-09-07T08:25:17;6.90;;;4.28;;
52898;SDS011;38763;53.096;6.062;2023-09-07T08:27:43;9.02;;;3.97;;
52898;SDS011;38763;53.096;6.062;2023-09-07T08:30:14;9.13;;;3.90;;
52898;SDS011;38763;53.096;6.062;2023-09-07T08:32:42;8.63;;;3.88;;
52898;SDS011;38763;53.096;6.062;2023-09-07T08:35:09;8.45;;;3.72;;
52898;SDS011;38763;53.096;6.062;2023-09-07T08:37:38;6.28;;;4.15;;
52898;SDS011;38763;53.096;6.062;2023-09-07T08:40:05;7.05;;;3.70;;
52898;SDS011;38763;53.096;6.062;2023-09-07T08:42:32;7.07;;;3.67;;
52898;SDS011;38763;53.096;6.062;2023-09-07T08:45:02;7.30;;;3.55;;
52898;SDS011;38763;53.096;6.062;2023-09-07T08:47:32;7.32;;;3.38;;
52898;SDS011;38763;53.096;6.062;2023-09-07T08:50:02;6.18;;;3.00;;
52898;SDS011;38763;53.096;6.062;2023-09-07T08:52:31;5.40;;;3.42;;
52898;SDS011;38763;53.096;6.062;2023-09-07T08:54:57;10.00;;;3.35;;
52898;SDS011;38763;53.096;6.062;2023-09-07T08:57:23;7.45;;;3.50;;
52898;SDS011;38763;53.096;6.062;2023-09-07T08:59:50;5.90;;;3.35;;
52898;SDS011;38763;53.096;6.062;2023-09-07T09:02:15;8.23;;;3.65;;
52898;SDS011;38763;53.096;6.062;2023-09-07T09:04:41;6.97;;;3.30;;
52898;SDS011;38763;53.096;6.062;2023-09-07T09:07:07;5.88;;;3.20;;
52898;SDS011;38763;53.096;6.062;2023-09-07T09:09:33;6.22;;;3.63;;
52898;SDS011;38763;53.096;6.062;2023-09-07T09:12:11;6.32;;;3.55;;
52898;SDS011;38763;53.096;6.062;2023-09-07T09:14:38;6.20;;;3.25;;
52898;SDS011;38763;53.096;6.062;2023-09-07T09:17:10;5.70;;;2.90;;
52898;SDS011;38763;53.096;6.062;2023-09-07T09:19:37;6.10;;;3.15;;
52898;SDS011;38763;53.096;6.062;2023-09-07T09:22:03;5.65;;;3.38;;
52898;SDS011;38763;53.096;6.062;2023-09-07T09:24:33;8.07;;;2.92;;
52898;SDS011;38763;53.096;6.062;2023-09-07T09:27:00;8.10;;;3.10;;
52898;SDS011;38763;53.096;6.062;2023-09-07T09:29:25;5.47;;;3.17;;
52898;SDS011;38763;53.096;6.062;2023-09-07T09:31:52;8.63;;;3.28;;
52898;SDS011;38763;53.096;6.062;2023-09-07T09:34:18;6.18;;;3.25;;
52898;SDS011;38763;53.096;6.062;2023-09-07T09:36:44;7.38;;;3.13;;
52898;SDS011;38763;53.096;6.062;2023-09-07T09:39:10;5.53;;;2.90;;
52898;SDS011;38763;53.096;6.062;2023-09-07T09:41:46;6.03;;;3.38;;
52898;SDS011;38763;53.096;6.062;2023-09-07T09:44:12;6.95;;;2.95;;
52898;SDS011;38763;53.096;6.062;2023-09-07T09:46:40;7.53;;;3.03;;
52898;SDS011;38763;53.096;6.062;2023-09-07T09:49:07;5.90;;;3.15;;
52898;SDS011;38763;53.096;6.062;2023-09-07T09:51:33;5.57;;;3.13;;
52898;SDS011;38763;53.096;6.062;2023-09-07T09:54:00;6.05;;;2.85;;
52898;SDS011;38763;53.096;6.062;2023-09-07T09:56:27;5.25;;;3.13;;
52898;SDS011;38763;53.096;6.062;2023-09-07T09:58:52;5.95;;;2.67;;
52898;SDS011;38763;53.096;6.062;2023-09-07T10:01:18;6.15;;;3.53;;
52898;SDS011;38763;53.096;6.062;2023-09-07T10:03:45;7.03;;;2.90;;
52898;SDS011;38763;53.096;6.062;2023-09-07T10:06:20;5.82;;;3.20;;
52898;SDS011;38763;53.096;6.062;2023-09-07T10:08:52;5.18;;;3.17;;
52898;SDS011;38763;53.096;6.062;2023-09-07T10:11:34;5.82;;;3.00;;
52898;SDS011;38763;53.096;6.062;2023-09-07T10:14:02;5.30;;;3.00;;
52898;SDS011;38763;53.096;6.062;2023-09-07T10:16:40;5.82;;;3.28;;
52898;SDS011;38763;53.096;6.062;2023-09-07T10:19:14;9.65;;;3.58;;
52898;SDS011;38763;53.096;6.062;2023-09-07T10:21:50;7.25;;;3.00;;
52898;SDS011;38763;53.096;6.062;2023-09-07T10:24:24;6.72;;;3.20;;
52898;SDS011;38763;53.096;6.062;2023-09-07T10:26:58;5.28;;;3.28;;
52898;SDS011;38763;53.096;6.062;2023-09-07T10:29:39;5.82;;;2.97;;
52898;SDS011;38763;53.096;6.062;2023-09-07T10:32:10;4.63;;;3.13;;
52898;SDS011;38763;53.096;6.062;2023-09-07T10:34:38;6.90;;;3.22;;
52898;SDS011;38763;53.096;6.062;2023-09-07T10:37:13;5.13;;;3.05;;
52898;SDS011;38763;53.096;6.062;2023-09-07T10:39:40;5.65;;;3.13;;
52898;SDS011;38763;53.096;6.062;2023-09-07T10:42:21;5.88;;;3.00;;
52898;SDS011;38763;53.096;6.062;2023-09-07T10:44:51;5.70;;;2.80;;
52898;SDS011;38763;53.096;6.062;2023-09-07T10:47:17;6.68;;;3.17;;
52898;SDS011;38763;53.096;6.062;2023-09-07T10:49:42;5.15;;;2.72;;
52898;SDS011;38763;53.096;6.062;2023-09-07T10:52:08;5.07;;;2.88;;
52898;SDS011;38763;53.096;6.062;2023-09-07T10:54:34;7.53;;;2.80;;
52898;SDS011;38763;53.096;6.062;2023-09-07T10:57:10;5.25;;;2.85;;
52898;SDS011;38763;53.096;6.062;2023-09-07T10:59:38;6.47;;;3.00;;
52898;SDS011;38763;53.096;6.062;2023-09-07T11:02:09;5.53;;;2.88;;
52898;SDS011;38763;53.096;6.062;2023-09-07T11:04:34;6.55;;;3.38;;
52898;SDS011;38763;53.096;6.062;2023-09-07T11:07:00;4.90;;;2.95;;
52898;SDS011;38763;53.096;6.062;2023-09-07T11:09:27;4.68;;;2.65;;
52898;SDS011;38763;53.096;6.062;2023-09-07T11:11:55;7.00;;;3.10;;
52898;SDS011;38763;53.096;6.062;2023-09-07T11:14:21;6.05;;;2.85;;
52898;SDS011;38763;53.096;6.062;2023-09-07T11:16:47;6.15;;;2.85;;
52898;SDS011;38763;53.096;6.062;2023-09-07T11:19:13;5.93;;;3.00;;
52898;SDS011;38763;53.096;6.062;2023-09-07T11:21:40;6.43;;;3.13;;
52898;SDS011;38763;53.096;6.062;2023-09-07T11:24:06;5.07;;;3.15;;
52898;SDS011;38763;53.096;6.062;2023-09-07T11:26:43;5.75;;;3.33;;
52898;SDS011;38763;53.096;6.062;2023-09-07T11:29:10;5.28;;;3.20;;
52898;SDS011;38763;53.096;6.062;2023-09-07T11:31:40;4.72;;;2.92;;
52898;SDS011;38763;53.096;6.062;2023-09-07T11:34:09;9.30;;;3.22;;
52898;SDS011;38763;53.096;6.062;2023-09-07T11:36:39;5.03;;;2.95;;
52898;SDS011;38763;53.096;6.062;2023-09-07T11:39:05;9.30;;;3.25;;
52898;SDS011;38763;53.096;6.062;2023-09-07T11:41:38;5.68;;;3.08;;
52898;SDS011;38763;53.096;6.062;2023-09-07T11:44:07;5.78;;;2.92;;
52898;SDS011;38763;53.096;6.062;2023-09-07T11:46:33;7.22;;;3.10;;
52898;SDS011;38763;53.096;6.062;2023-09-07T11:48:59;5.80;;;3.25;;
52898;SDS011;38763;53.096;6.062;2023-09-07T11:51:25;4.90;;;2.85;;
52898;SDS011;38763;53.096;6.062;2023-09-07T11:53:51;7.80;;;3.50;;
52898;SDS011;38763;53.096;6.062;2023-09-07T11:56:16;8.68;;;3.05;;
52898;SDS011;38763;53.096;6.062;2023-09-07T11:58:42;6.43;;;3.10;;
52898;SDS011;38763;53.096;6.062;2023-09-07T12:01:09;5.80;;;3.00;;
52898;SDS011;38763;53.096;6.062;2023-09-07T12:03:35;5.00;;;3.15;;
52898;SDS011;38763;53.096;6.062;2023-09-07T12:06:00;5.63;;;2.70;;
52898;SDS011;38763;53.096;6.062;2023-09-07T12:08:26;4.80;;;2.88;;
52898;SDS011;38763;53.096;6.062;2023-09-07T12:10:52;4.95;;;2.88;;
52898;SDS011;38763;53.096;6.062;2023-09-07T12:13:17;6.55;;;3.13;;
52898;SDS011;38763;53.096;6.062;2023-09-07T12:15:43;5.53;;;2.83;;
52898;SDS011;38763;53.096;6.062;2023-09-07T12:18:08;7.15;;;3.20;;
52898;SDS011;38763;53.096;6.062;2023-09-07T12:20:34;6.95;;;3.03;;
52898;SDS011;38763;53.096;6.062;2023-09-07T12:23:00;6.30;;;3.38;;
52898;SDS011;38763;53.096;6.062;2023-09-07T12:25:27;12.75;;;3.58;;
52898;SDS011;38763;53.096;6.062;2023-09-07T12:27:53;7.07;;;3.10;;
52898;SDS011;38763;53.096;6.062;2023-09-07T12:30:19;6.03;;;2.72;;
52898;SDS011;38763;53.096;6.062;2023-09-07T12:32:46;6.25;;;3.45;;
52898;SDS011;38763;53.096;6.062;2023-09-07T12:35:11;7.15;;;3.40;;
52898;SDS011;38763;53.096;6.062;2023-09-07T12:37:37;6.25;;;3.40;;
52898;SDS011;38763;53.096;6.062;2023-09-07T12:40:03;5.93;;;3.10;;
52898;SDS011;38763;53.096;6.062;2023-09-07T12:42:44;6.63;;;3.15;;
52898;SDS011;38763;53.096;6.062;2023-09-07T12:45:11;6.97;;;3.30;;
52898;SDS011;38763;53.096;6.062;2023-09-07T12:47:37;7.90;;;3.47;;
52898;SDS011;38763;53.096;6.062;2023-09-07T12:50:04;7.45;;;3.20;;
52898;SDS011;38763;53.096;6.062;2023-09-07T12:52:30;6.75;;;3.13;;
52898;SDS011;38763;53.096;6.062;2023-09-07T12:54:56;6.85;;;3.03;;
52898;SDS011;38763;53.096;6.062;2023-09-07T12:57:22;7.38;;;3.22;;
52898;SDS011;38763;53.096;6.062;2023-09-07T12:59:47;6.20;;;2.78;;
52898;SDS011;38763;53.096;6.062;2023-09-07T13:02:14;5.55;;;3.20;;
52898;SDS011;38763;53.096;6.062;2023-09-07T13:04:40;5.90;;;3.20;;
52898;SDS011;38763;53.096;6.062;2023-09-07T13:07:05;8.23;;;3.20;;
52898;SDS011;38763;53.096;6.062;2023-09-07T13:09:31;6.38;;;3.28;;
52898;SDS011;38763;53.096;6.062;2023-09-07T13:11:56;7.45;;;2.97;;
52898;SDS011;38763;53.096;6.062;2023-09-07T13:14:22;5.97;;;3.20;;
52898;SDS011;38763;53.096;6.062;2023-09-07T13:16:48;10.52;;;3.28;;
52898;SDS011;38763;53.096;6.062;2023-09-07T13:19:15;6.95;;;2.97;;
52898;SDS011;38763;53.096;6.062;2023-09-07T13:21:41;6.10;;;2.97;;
52898;SDS011;38763;53.096;6.062;2023-09-07T13:24:07;6.32;;;2.80;;
52898;SDS011;38763;53.096;6.062;2023-09-07T13:26:32;7.50;;;2.90;;
52898;SDS011;38763;53.096;6.062;2023-09-07T13:28:58;5.38;;;2.50;;
52898;SDS011;38763;53.096;6.062;2023-09-07T13:31:24;4.93;;;2.80;;
52898;SDS011;38763;53.096;6.062;2023-09-07T13:33:49;5.20;;;2.70;;
52898;SDS011;38763;53.096;6.062;2023-09-07T13:36:15;6.43;;;2.88;;
52898;SDS011;38763;53.096;6.062;2023-09-07T13:38:42;5.65;;;2.63;;
52898;SDS011;38763;53.096;6.062;2023-09-07T13:41:08;6.05;;;2.60;;
52898;SDS011;38763;53.096;6.062;2023-09-07T13:43:34;4.88;;;2.90;;
52898;SDS011;38763;53.096;6.062;2023-09-07T13:46:00;5.57;;;2.50;;
52898;SDS011;38763;53.096;6.062;2023-09-07T13:48:25;7.93;;;2.78;;
52898;SDS011;38763;53.096;6.062;2023-09-07T13:50:51;4.82;;;2.55;;
52898;SDS011;38763;53.096;6.062;2023-09-07T13:53:17;5.45;;;2.78;;
52898;SDS011;38763;53.096;6.062;2023-09-07T13:55:42;5.22;;;2.83;;
52898;SDS011;38763;53.096;6.062;2023-09-07T13:58:11;7.68;;;2.92;;
52898;SDS011;38763;53.096;6.062;2023-09-07T14:00:36;4.82;;;2.67;;
52898;SDS011;38763;53.096;6.062;2023-09-07T14:03:03;7.30;;;2.80;;
52898;SDS011;38763;53.096;6.062;2023-09-07T14:05:29;8.05;;;2.75;;
52898;SDS011;38763;53.096;6.062;2023-09-07T14:07:55;9.30;;;3.20;;
52898;SDS011;38763;53.096;6.062;2023-09-07T14:10:22;6.57;;;3.00;;
52898;SDS011;38763;53.096;6.062;2023-09-07T14:12:48;7.55;;;2.95;;
52898;SDS011;38763;53.096;6.062;2023-09-07T14:15:13;5.03;;;2.97;;
52898;SDS011;38763;53.096;6.062;2023-09-07T14:17:39;5.43;;;2.67;;
52898;SDS011;38763;53.096;6.062;2023-09-07T14:20:05;8.63;;;2.88;;
52898;SDS011;38763;53.096;6.062;2023-09-07T14:22:31;6.50;;;2.58;;
52898;SDS011;38763;53.096;6.062;2023-09-07T14:24:56;5.03;;;2.70;;
52898;SDS011;38763;53.096;6.062;2023-09-07T14:27:22;7.00;;;3.20;;
52898;SDS011;38763;53.096;6.062;2023-09-07T14:29:48;8.63;;;2.92;;
52898;SDS011;38763;53.096;6.062;2023-09-07T14:32:14;6.32;;;3.00;;
52898;SDS011;38763;53.096;6.062;2023-09-07T14:34:39;5.72;;;3.05;;
52898;SDS011;38763;53.096;6.062;2023-09-07T14:37:05;5.93;;;3.00;;
52898;SDS011;38763;53.096;6.062;2023-09-07T14:39:31;4.65;;;2.92;;
52898;SDS011;38763;53.096;6.062;2023-09-07T14:41:56;5.78;;;3.00;;